Amherst, Virginia
Current Conditions -  °F | °C
As of 7:54 AM on Thursday 23 Oct 2014 (Local Time) from KLYH Reporting Station
Clear Clear  
Wind Chill: 44°   Ceiling: Unl
Heat Index: 49°   Visibility: 10mi
Dew Point: 38°   Wind: 13mph
Humidity: 66%   Direction: 320°NW
Pressure: 30.02"   Gusts: 18mph
Location:  37.59°N, 79.05°W
Report Text: KLYH 231154Z 32011G16KT 10SM CLR 09/03 A3002 RMK AO2 SLP165 T00940033 10100 20050 50009
Loading
Personal Weather Stations






























Interactive Weather Map New forecast layout! Learn more

10-Day Weather Forecast

Advertisements
Track Severe Weather on mobile